Superferry II — SWKV — position and weather

sailwx.info

Track history (hours):
 
Tides and Currents Weather Stations Pressure Air Temp Water Temp Dewpoint Dewpoint Depression Visibility Wind Speed Wind Dir Waves Ship Positions

Superferry II

Last reported at 2014-Oct-31 16:33 UTC. Time now 2014-Nov-01 04:11 UTC.
Position N 38°01' E 024°02'.

Length 122 m; draft 4.7 m.

Type: Passenger vessel. MMSI: 237001000.

Date/timePositionNaut miles runAvg speedWind from/ knotsBaromVisibWave heightAir tempDewpointWater temp
2014-Oct-31 16:33N 38°01' E 024°02'2318.1
2014-Oct-31 15:17N 37°55' E 024°30'2613.9
2014-Oct-31 13:24N 37°40' E 024°57'1214.5
2014-Oct-31 12:33N 37°32' E 025°09'9 9.1
2014-Oct-31 11:33N 37°28' E 025°19'1 0.7
2014-Oct-31 10:33N 37°28' E 025°19'1212.4
2014-Oct-31 09:33N 37°34' E 025°05'4815.5
2014-Oct-31 06:27N 37°58' E 024°13'7 0.5
2014-Oct-30 16:30N 38°01' E 024°05'1818.0
2014-Oct-30 15:30N 37°55' E 024°26'2613.2
2014-Oct-30 13:32N 37°42' E 024°55'1515.6
2014-Oct-30 12:33N 37°32' E 025°09'9 9.1
2014-Oct-30 11:33N 37°28' E 025°19'0 0.0
2014-Oct-30 10:33N 37°28' E 025°19'1312.7
2014-Oct-30 09:33N 37°34' E 025°05'4815.7
2014-Oct-30 06:30N 37°59' E 024°13'10 0.7
2014-Oct-29 16:31N 38°01' E 024°01'2017.5
2014-Oct-29 15:24N 37°56' E 024°25'2513.6
2014-Oct-29 13:33N 37°43' E 024°53'1717.5
2014-Oct-29 12:33N 37°32' E 025°09'9 9.1
2014-Oct-29 11:33N 37°28' E 025°19'0 0.0
2014-Oct-29 10:33N 37°28' E 025°19'1312.7
2014-Oct-29 09:33N 37°34' E 025°05'4815.6
2014-Oct-29 06:27N 37°58' E 024°13'9 0.6
2014-Oct-28 16:31N 38°01' E 024°02'1918.3
2014-Oct-28 15:28N 37°55' E 024°25'2713.1
2014-Oct-28 13:27N 37°42' E 024°54'1617.5
2014-Oct-28 12:33N 37°32' E 025°09'9 9.1
2014-Oct-28 11:33N 37°28' E 025°19'0 0.0
2014-Oct-28 10:33N 37°28' E 025°19'1211.9
2014-Oct-28 09:33N 37°33' E 025°06'5316.1
2014-Oct-28 06:16N 37°60' E 024°08'6 0.4
2014-Oct-27 16:28N 38°01' E 024°01'2018.3
2014-Oct-27 15:23N 37°56' E 024°25'2714.3
2014-Oct-27 13:30N 37°42' E 024°54'1516.4
2014-Oct-27 12:33N 37°32' E 025°09'9 9.1
2014-Oct-27 11:33N 37°28' E 025°19'0 0.1
2014-Oct-27 10:34N 37°28' E 025°19'1111.4
2014-Oct-27 09:33N 37°33' E 025°07'4815.9
2014-Oct-27 06:33N 37°58' E 024°15'11 0.8
2014-Oct-26 16:25N 38°01' E 024°02'2018.7
2014-Oct-26 15:22N 37°55' E 024°25'2813.8
2014-Oct-26 13:21N 37°41' E 024°56'1417.2
2014-Oct-26 12:33N 37°32' E 025°09'9 9.1
2014-Oct-26 11:33N 37°28' E 025°19'0 0.0
2014-Oct-26 10:34N 37°28' E 025°19'1312.8
2014-Oct-26 09:33N 37°34' E 025°05'4715.8
2014-Oct-26 06:34N 37°58' E 024°14'11 0.7
2014-Oct-25 15:31N 38°01' E 024°01'2017.6
2014-Oct-25 14:23N 37°55' E 024°25'2714.0
2014-Oct-25 12:26N 37°41' E 024°55'1516.7
2014-Oct-25 11:33N 37°32' E 025°09'9 9.1
2014-Oct-25 10:34N 37°28' E 025°19'2 1.7
2014-Oct-25 09:33N 37°28' E 025°17'1212.0
2014-Oct-25 08:32N 37°34' E 025°04'4915.7
2014-Oct-25 05:26N 37°59' E 024°11'16 1.7
2014-Oct-24 19:31N 37°54' E 024°30'21 7.1
2014-Oct-24 16:33N 38°00' E 024°05'3 3.2
2014-Oct-24 15:33N 38°02' E 024°01'1917.7
2014-Oct-24 14:28N 37°56' E 024°25'2613.6
2014-Oct-24 12:31N 37°42' E 024°54'1616.7
2014-Oct-24 11:33N 37°32' E 025°09'9 9.1
2014-Oct-24 10:33N 37°28' E 025°19'0 0.0
2014-Oct-24 09:33N 37°28' E 025°19'1413.4
2014-Oct-24 08:33N 37°34' E 025°04'4615.4
2014-Oct-24 05:33N 37°58' E 024°15'9 0.6
2014-Oct-23 14:33N 37°55' E 024°25'2713.7
2014-Oct-23 12:33N 37°42' E 024°55'1515.2
2014-Oct-23 11:33N 37°32' E 025°10'9 8.9
2014-Oct-23 10:33N 37°28' E 025°19'3 2.9
2014-Oct-23 09:33N 37°29' E 025°16'1312.6
2014-Oct-23 08:33N 37°36' E 025°02'4414.7
2014-Oct-23 05:33N 37°58' E 024°14'9 0.6
2014-Oct-22 15:32N 38°01' E 024°04'2118.1
2014-Oct-22 14:21N 37°55' E 024°30'2513.9
2014-Oct-22 12:33N 37°41' E 024°56'1413.9
2014-Oct-22 11:33N 37°32' E 025°10'9 8.7
2014-Oct-22 10:32N 37°28' E 025°19'0 0.0
2014-Oct-22 09:31N 37°28' E 025°19'1212.2
2014-Oct-22 08:33N 37°33' E 025°06'4915.8
2014-Oct-22 05:29N 37°58' E 024°13'  
Track history (hours):
 
Tides and Currents Weather Stations Pressure Air Temp Water Temp Dewpoint Dewpoint Depression Visibility Wind Speed Wind Dir Waves Ship Positions

Superferry II

Last reported at 2014-Oct-31 16:33 UTC. Time now 2014-Nov-01 04:11 UTC.
Position N 38°01' E 024°02'.

Length 122 m; draft 4.7 m.

Type: Passenger vessel. MMSI: 237001000.

Date/timePositionNaut miles runAvg speedWind from/ knotsBaromVisibWave heightAir tempDewpointWater temp
2014-Oct-31 16:33N 38°01' E 024°02'2318.1
2014-Oct-31 15:17N 37°55' E 024°30'2613.9
2014-Oct-31 13:24N 37°40' E 024°57'1214.5
2014-Oct-31 12:33N 37°32' E 025°09'9 9.1
2014-Oct-31 11:33N 37°28' E 025°19'1 0.7
2014-Oct-31 10:33N 37°28' E 025°19'1212.4
2014-Oct-31 09:33N 37°34' E 025°05'4815.5
2014-Oct-31 06:27N 37°58' E 024°13'7 0.5
2014-Oct-30 16:30N 38°01' E 024°05'1818.0
2014-Oct-30 15:30N 37°55' E 024°26'2613.2
2014-Oct-30 13:32N 37°42' E 024°55'1515.6
2014-Oct-30 12:33N 37°32' E 025°09'9 9.1
2014-Oct-30 11:33N 37°28' E 025°19'0 0.0
2014-Oct-30 10:33N 37°28' E 025°19'1312.7
2014-Oct-30 09:33N 37°34' E 025°05'4815.7
2014-Oct-30 06:30N 37°59' E 024°13'10 0.7
2014-Oct-29 16:31N 38°01' E 024°01'2017.5
2014-Oct-29 15:24N 37°56' E 024°25'2513.6
2014-Oct-29 13:33N 37°43' E 024°53'1717.5
2014-Oct-29 12:33N 37°32' E 025°09'9 9.1
2014-Oct-29 11:33N 37°28' E 025°19'0 0.0
2014-Oct-29 10:33N 37°28' E 025°19'1312.7
2014-Oct-29 09:33N 37°34' E 025°05'4815.6
2014-Oct-29 06:27N 37°58' E 024°13'9 0.6
2014-Oct-28 16:31N 38°01' E 024°02'1918.3
2014-Oct-28 15:28N 37°55' E 024°25'2713.1
2014-Oct-28 13:27N 37°42' E 024°54'1617.5
2014-Oct-28 12:33N 37°32' E 025°09'9 9.1
2014-Oct-28 11:33N 37°28' E 025°19'0 0.0
2014-Oct-28 10:33N 37°28' E 025°19'1211.9
2014-Oct-28 09:33N 37°33' E 025°06'5316.1
2014-Oct-28 06:16N 37°60' E 024°08'6 0.4
2014-Oct-27 16:28N 38°01' E 024°01'2018.3
2014-Oct-27 15:23N 37°56' E 024°25'2714.3
2014-Oct-27 13:30N 37°42' E 024°54'1516.4
2014-Oct-27 12:33N 37°32' E 025°09'9 9.1
2014-Oct-27 11:33N 37°28' E 025°19'0 0.1
2014-Oct-27 10:34N 37°28' E 025°19'1111.4
2014-Oct-27 09:33N 37°33' E 025°07'4815.9
2014-Oct-27 06:33N 37°58' E 024°15'11 0.8
2014-Oct-26 16:25N 38°01' E 024°02'2018.7
2014-Oct-26 15:22N 37°55' E 024°25'2813.8
2014-Oct-26 13:21N 37°41' E 024°56'1417.2
2014-Oct-26 12:33N 37°32' E 025°09'9 9.1
2014-Oct-26 11:33N 37°28' E 025°19'0 0.0
2014-Oct-26 10:34N 37°28' E 025°19'1312.8
2014-Oct-26 09:33N 37°34' E 025°05'4715.8
2014-Oct-26 06:34N 37°58' E 024°14'11 0.7
2014-Oct-25 15:31N 38°01' E 024°01'2017.6
2014-Oct-25 14:23N 37°55' E 024°25'2714.0
2014-Oct-25 12:26N 37°41' E 024°55'1516.7
2014-Oct-25 11:33N 37°32' E 025°09'9 9.1
2014-Oct-25 10:34N 37°28' E 025°19'2 1.7
2014-Oct-25 09:33N 37°28' E 025°17'1212.0
2014-Oct-25 08:32N 37°34' E 025°04'4915.7
2014-Oct-25 05:26N 37°59' E 024°11'16 1.7
2014-Oct-24 19:31N 37°54' E 024°30'21 7.1
2014-Oct-24 16:33N 38°00' E 024°05'3 3.2
2014-Oct-24 15:33N 38°02' E 024°01'1917.7
2014-Oct-24 14:28N 37°56' E 024°25'2613.6
2014-Oct-24 12:31N 37°42' E 024°54'1616.7
2014-Oct-24 11:33N 37°32' E 025°09'9 9.1
2014-Oct-24 10:33N 37°28' E 025°19'0 0.0
2014-Oct-24 09:33N 37°28' E 025°19'1413.4
2014-Oct-24 08:33N 37°34' E 025°04'4615.4
2014-Oct-24 05:33N 37°58' E 024°15'9 0.6
2014-Oct-23 14:33N 37°55' E 024°25'2713.7
2014-Oct-23 12:33N 37°42' E 024°55'1515.2
2014-Oct-23 11:33N 37°32' E 025°10'9 8.9
2014-Oct-23 10:33N 37°28' E 025°19'3 2.9
2014-Oct-23 09:33N 37°29' E 025°16'1312.6
2014-Oct-23 08:33N 37°36' E 025°02'4414.7
2014-Oct-23 05:33N 37°58' E 024°14'9 0.6
2014-Oct-22 15:32N 38°01' E 024°04'2118.1
2014-Oct-22 14:21N 37°55' E 024°30'2513.9
2014-Oct-22 12:33N 37°41' E 024°56'1413.9
2014-Oct-22 11:33N 37°32' E 025°10'9 8.7
2014-Oct-22 10:32N 37°28' E 025°19'0 0.0
2014-Oct-22 09:31N 37°28' E 025°19'1212.2
2014-Oct-22 08:33N 37°33' E 025°06'4915.8
2014-Oct-22 05:29N 37°58' E 024°13'  

Dump ship's entire track history